DON PEDRO RESERVOIR (DNP)

Elevation: 830' · TUOLUMNE R basin · Operator: Turlock Irrigation District

Provisional data, subject to change.
Query executed Thursday at 18:20:18   clock

Select a sensor type for a plot of data.
Note: Reservoir Flows are daily averages.

Earlier

Date RES ELE    STORAGE    RES CHG    TOC STO    ABV TOC    OUTFLOW    INFLOW    PPT INC   
 FEET   AF   AF   AF   AF   CFS   CFS   INCHES  
08/04/2015 681.27 685983 -882 2030000 -1344017 1359 1063 0.00
08/05/2015 680.84 683047 -2642 2030000 -1346953 1939 459 0.00
08/06/2015 680.65 682461 -879 2030000 -1347539 1365 1070 0.00
08/07/2015 680.33 680120 -2633 2030000 -- 1583 402 0.00
08/08/2015 680.14 679535 -585 2030000 -- 1365 1070 0.00
08/09/2015 679.97 678950 -1574 2030000 -1351050 1295 1000 0.00
08/10/2015 679.75 677085 -2739 2030000 -1352915 1150 209 0.00
08/11/2015 679.40 674755 -1747 2030000 -1355245 1541 366 0.00
08/12/2015 679.12 673592 -1453 2030000 -1356408 1519 932 0.00
08/13/2015 678.91 671850 -1742 2030000 -1358150 1364 486 0.00
08/14/2015 678.80 671270 -580 2030000 -- 1211 919 0.00
08/15/2015 678.57 670690 -1449 2030000 -- 1492 1199 0.00
08/16/2015 678.57 670690 -2893 2030000 -- 1482 1482 0.00
08/17/2015 677.93 666061 -5206 2030000 -1363939 1644 -690 0.00
08/18/2015 677.71 665484 -1154 2030000 -1364516 1342 1052 0.00
08/19/2015 677.59 664907 -1441 2030000 -1365093 1074 783 0.00
08/20/2015 677.30 662603 -2304 2030000 -1367397 1465 304 0.00
08/21/2015 377.14 662028 -1151 2030000 -- 1137 847 0.00
08/22/2015 677.03 661452 -861 2030000 -- 1313 1023 0.00
08/23/2015 676.68 659729 -1436 2030000 -1370845 1317 449 0.00
08/24/2015 676.65 659155 -1147 2030000 -1370845 1052 763 0.00
08/25/2015 676.34 656863 -2006 2030000 -1373137 1474 318 0.00
08/26/2015 676.28 656863 -573 2030000 -1373137 1081 870 0.00
08/27/2015 676.02 655718 -2002 2030000 -1374282 1438 860 0.00
08/28/2015 675.80 654004 -1999 2030000 -- 1501 637 0.00
08/29/2015 675.74 654004 -856 2030000 -- 1097 1097 0.00
08/30/2015 675.45 651722 0 2030000 -- 1213 63 0.00
08/31/2015 675.28 651153 -854 2030000 -1378847 1438 1151 0.00
09/01/2015 675.17 651153 -1139 2030000 -1378847 1267 1267 0.00
09/02/2015 675.09 650583 -1707 2030000 -1379417 1014 727 0.00
09/03/2015 -- -- -- -- -- -- -- --

Later | Latest

Warning! This data is preliminary and subject to revision.

Show DNP Map | Plot DNP Data | 1 Month DNP Data | Real-Time DNP Data | DNP Info